createdAt,value
2019-05-16T00:00:51.296Z,0.00
2019-05-16T00:01:51.261Z,0.00
2019-05-16T00:02:51.234Z,0.00
2019-05-16T00:03:51.175Z,0.00
2019-05-16T00:04:51.168Z,0.00
2019-05-16T00:05:54.400Z,0.00
2019-05-16T00:06:51.070Z,0.00
2019-05-16T00:07:51.028Z,0.00
2019-05-16T00:08:51.032Z,0.00
2019-05-16T00:09:50.950Z,0.00
2019-05-16T00:10:50.939Z,0.00
2019-05-16T00:11:50.890Z,0.00
2019-05-16T00:12:50.870Z,0.00
2019-05-16T00:13:50.794Z,0.00
2019-05-16T00:14:50.753Z,0.00
2019-05-16T00:15:50.712Z,0.00
2019-05-16T00:16:50.702Z,0.00
2019-05-16T00:17:50.636Z,0.00
2019-05-16T00:18:50.645Z,0.00
2019-05-16T00:19:50.626Z,0.00
2019-05-16T00:20:50.513Z,0.00
2019-05-16T00:21:50.470Z,0.00
2019-05-16T00:22:50.498Z,0.00
2019-05-16T00:23:50.458Z,0.00
2019-05-16T00:24:50.381Z,0.00
2019-05-16T00:25:50.324Z,0.00
2019-05-16T00:26:50.308Z,0.00
2019-05-16T00:27:50.258Z,0.00
2019-05-16T00:28:50.210Z,0.00
2019-05-16T00:29:50.210Z,0.00
2019-05-16T00:30:50.143Z,0.00
2019-05-16T00:31:50.112Z,0.00
2019-05-16T00:32:50.100Z,0.00
2019-05-16T00:33:50.077Z,0.00
2019-05-16T00:34:49.979Z,0.00
2019-05-16T00:36:02.221Z,0.00
2019-05-16T00:36:49.896Z,0.00
2019-05-16T00:37:49.860Z,0.00
2019-05-16T00:38:49.850Z,0.00
2019-05-16T00:39:49.823Z,0.00
2019-05-16T00:40:49.758Z,0.00
2019-05-16T00:41:49.725Z,0.00
2019-05-16T00:42:49.712Z,0.00
2019-05-16T00:43:49.632Z,0.00
2019-05-16T00:44:49.597Z,0.00
2019-05-16T00:45:49.550Z,0.00
2019-05-16T00:46:49.513Z,0.00
2019-05-16T00:47:49.511Z,0.00
2019-05-16T00:48:49.443Z,0.00
2019-05-16T00:49:49.396Z,0.00
2019-05-16T00:50:49.360Z,0.00
2019-05-16T00:51:49.315Z,0.00
2019-05-16T00:52:49.275Z,0.00
2019-05-16T00:53:49.233Z,0.00
2019-05-16T00:54:49.193Z,0.00
2019-05-16T00:55:49.161Z,0.00
2019-05-16T00:56:49.127Z,0.00
2019-05-16T00:57:49.075Z,0.00
2019-05-16T00:58:49.052Z,0.00
2019-05-16T00:59:49.028Z,0.00
2019-05-16T01:00:49.892Z,0.00
2019-05-16T01:01:49.974Z,0.00
2019-05-16T01:02:48.889Z,0.00
2019-05-16T01:03:48.846Z,0.00
2019-05-16T01:04:48.818Z,0.00
2019-05-16T01:05:48.770Z,0.00
2019-05-16T01:06:48.738Z,0.00
2019-05-16T01:07:48.705Z,0.00
2019-05-16T01:08:48.979Z,0.00
2019-05-16T01:09:48.888Z,0.00
2019-05-16T01:10:51.502Z,0.00
2019-05-16T01:11:48.738Z,0.00
2019-05-16T01:12:48.502Z,0.00
2019-05-16T01:13:48.880Z,0.00
2019-05-16T01:14:48.433Z,0.00
2019-05-16T01:15:48.815Z,0.00
2019-05-16T01:16:48.819Z,0.00
2019-05-16T01:17:48.523Z,0.00
2019-05-16T01:18:48.813Z,0.00
2019-05-16T01:19:48.491Z,0.00
2019-05-16T01:20:48.355Z,0.00
2019-05-16T01:21:48.437Z,0.00
2019-05-16T01:22:49.026Z,0.00
2019-05-16T01:23:48.300Z,0.00
2019-05-16T01:24:49.244Z,0.00
2019-05-16T01:25:48.513Z,0.00
2019-05-16T01:26:48.494Z,0.00
2019-05-16T01:27:47.918Z,0.00
2019-05-16T01:28:48.406Z,0.00
2019-05-16T01:29:47.863Z,0.00
2019-05-16T01:30:48.750Z,0.00
2019-05-16T01:31:48.354Z,0.00
2019-05-16T01:32:49.171Z,0.00
2019-05-16T01:33:47.912Z,0.00
2019-05-16T01:34:48.345Z,0.00
2019-05-16T01:35:47.830Z,0.00
2019-05-16T01:36:48.600Z,0.00
2019-05-16T01:37:48.766Z,0.00
2019-05-16T01:38:48.120Z,0.00
2019-05-16T01:39:48.402Z,0.00
2019-05-16T01:40:49.094Z,0.00
2019-05-16T01:41:48.082Z,0.00
2019-05-16T01:42:49.042Z,0.00
2019-05-16T01:43:48.296Z,0.00
2019-05-16T01:44:48.713Z,0.00
2019-05-16T01:45:48.716Z,0.00
2019-05-16T01:46:48.100Z,0.00
2019-05-16T01:47:48.212Z,0.00
2019-05-16T01:48:48.431Z,0.00
2019-05-16T01:49:48.796Z,0.00
2019-05-16T01:50:48.144Z,0.00
2019-05-16T01:51:48.422Z,0.00
2019-05-16T01:52:48.670Z,0.00
2019-05-16T01:53:48.845Z,0.00
2019-05-16T01:54:48.101Z,0.00
2019-05-16T01:55:48.920Z,0.00
2019-05-16T01:56:48.133Z,0.00
2019-05-16T01:57:48.080Z,0.00
2019-05-16T01:58:48.762Z,0.00
2019-05-16T01:59:48.590Z,0.00
2019-05-16T02:01:00.132Z,0.00
2019-05-16T02:01:48.390Z,0.00
2019-05-16T02:02:48.622Z,0.00
2019-05-16T02:03:48.153Z,0.00
2019-05-16T02:04:48.368Z,0.00
2019-05-16T02:05:48.064Z,0.00
2019-05-16T02:06:51.601Z,0.00
2019-05-16T02:07:48.008Z,0.00
2019-05-16T02:08:48.502Z,0.00
2019-05-16T02:09:47.657Z,0.00
2019-05-16T02:10:47.826Z,0.00
2019-05-16T02:11:48.088Z,0.00
2019-05-16T02:12:46.168Z,0.00
2019-05-16T02:13:48.231Z,0.00
2019-05-16T02:14:47.985Z,0.00
2019-05-16T02:15:46.044Z,0.00
2019-05-16T02:16:47.731Z,0.00
2019-05-16T02:17:48.291Z,0.00
2019-05-16T02:18:45.933Z,0.00
2019-05-16T02:19:45.894Z,0.00
2019-05-16T02:20:47.874Z,0.00
2019-05-16T02:21:47.624Z,0.00
2019-05-16T02:22:48.003Z,0.00
2019-05-16T02:23:45.734Z,0.00
2019-05-16T02:24:47.862Z,0.00
2019-05-16T02:25:45.671Z,0.00
2019-05-16T02:26:45.630Z,0.00
2019-05-16T02:27:45.579Z,0.00
2019-05-16T02:28:45.538Z,0.00
2019-05-16T02:29:45.513Z,0.00
2019-05-16T02:30:45.469Z,0.00
2019-05-16T02:31:45.429Z,0.00
2019-05-16T02:32:45.396Z,0.00
2019-05-16T02:33:45.339Z,0.00
2019-05-16T02:34:45.304Z,0.00
2019-05-16T02:35:45.269Z,0.00
2019-05-16T02:36:45.221Z,0.00
2019-05-16T02:37:45.193Z,0.00
2019-05-16T02:38:45.146Z,0.00
2019-05-16T02:39:45.120Z,0.00
2019-05-16T02:40:45.072Z,0.00
2019-05-16T02:41:46.208Z,0.00
2019-05-16T02:42:44.990Z,0.00
2019-05-16T02:43:44.958Z,0.00
2019-05-16T02:44:44.913Z,0.00
2019-05-16T02:45:44.888Z,0.00
2019-05-16T02:46:44.843Z,0.00
2019-05-16T02:47:44.826Z,0.00
2019-05-16T02:48:44.767Z,0.00
2019-05-16T02:49:44.731Z,0.00
2019-05-16T02:50:44.679Z,0.00
2019-05-16T02:51:44.650Z,0.00
2019-05-16T02:52:44.607Z,0.00
2019-05-16T02:53:44.558Z,0.00
2019-05-16T02:54:44.533Z,4.00
2019-05-16T02:55:44.494Z,4.00
2019-05-16T02:56:44.466Z,4.00
2019-05-16T02:57:44.413Z,4.00
2019-05-16T02:58:44.955Z,4.00
2019-05-16T02:59:44.332Z,4.00
2019-05-16T03:00:44.310Z,4.00
2019-05-16T03:01:44.258Z,8.00
2019-05-16T03:02:44.212Z,4.00
2019-05-16T03:03:44.427Z,8.00
2019-05-16T03:04:44.551Z,8.00
2019-05-16T03:05:44.090Z,8.00
2019-05-16T03:06:44.052Z,12.00
2019-05-16T03:07:47.211Z,16.00
2019-05-16T03:08:43.979Z,20.00
2019-05-16T03:09:43.943Z,24.00
2019-05-16T03:10:43.898Z,32.00
2019-05-16T03:11:43.857Z,36.00
2019-05-16T03:12:43.895Z,40.00
2019-05-16T03:13:43.784Z,48.00
2019-05-16T03:14:43.773Z,52.00
2019-05-16T03:15:43.708Z,60.00
2019-05-16T03:16:43.670Z,64.00
2019-05-16T03:17:43.624Z,76.00
2019-05-16T03:18:43.592Z,84.00
2019-05-16T03:19:43.626Z,100.00
2019-05-16T03:20:43.510Z,120.00
2019-05-16T03:21:43.483Z,136.00
2019-05-16T03:22:43.436Z,148.00
2019-05-16T03:23:43.452Z,160.00
2019-05-16T03:24:43.358Z,172.00
2019-05-16T03:25:43.325Z,184.00
2019-05-16T03:26:43.301Z,200.00
2019-05-16T03:27:43.249Z,216.00
2019-05-16T03:28:43.211Z,232.00
2019-05-16T03:29:43.157Z,256.00
2019-05-16T03:30:45.234Z,284.00
2019-05-16T03:31:44.994Z,320.00
2019-05-16T03:32:45.597Z,364.00
2019-05-16T03:33:50.307Z,408.00
2019-05-16T03:34:44.430Z,452.00
2019-05-16T03:35:44.632Z,496.00
2019-05-16T03:36:44.298Z,528.00
2019-05-16T03:37:54.961Z,544.00
2019-05-16T03:38:42.800Z,560.00
2019-05-16T03:39:42.773Z,576.00
2019-05-16T03:40:42.738Z,592.00
2019-05-16T03:41:42.703Z,620.00
2019-05-16T03:42:42.663Z,668.00
2019-05-16T03:43:42.626Z,736.00
2019-05-16T03:44:42.579Z,804.00
2019-05-16T03:45:42.552Z,840.00
2019-05-16T03:46:42.524Z,828.00
2019-05-16T03:47:42.995Z,820.00
2019-05-16T03:48:42.419Z,832.00
2019-05-16T03:49:42.451Z,828.00
2019-05-16T03:50:42.350Z,804.00
2019-05-16T03:51:42.370Z,776.00
2019-05-16T03:52:43.700Z,780.00
2019-05-16T03:53:42.228Z,816.00
2019-05-16T03:54:42.233Z,904.00
2019-05-16T03:55:42.145Z,1012.00
2019-05-16T03:56:42.134Z,1088.00
2019-05-16T03:57:42.115Z,1096.00
2019-05-16T03:58:42.055Z,1048.00
2019-05-16T03:59:41.988Z,1024.00
2019-05-16T04:00:45.649Z,1060.00
2019-05-16T04:01:41.931Z,1172.00
2019-05-16T04:02:45.510Z,1316.00
2019-05-16T04:03:41.849Z,1440.00
2019-05-16T04:04:41.946Z,1512.00
2019-05-16T04:05:41.773Z,1572.00
2019-05-16T04:06:41.910Z,1616.00
2019-05-16T04:07:42.003Z,1684.00
2019-05-16T04:08:41.674Z,1792.00
2019-05-16T04:09:41.613Z,1920.00
2019-05-16T04:10:41.570Z,2048.00
2019-05-16T04:11:42.446Z,2160.00
2019-05-16T04:12:42.177Z,2236.00
2019-05-16T04:13:41.713Z,2272.00
2019-05-16T04:14:41.411Z,2284.00
2019-05-16T04:15:41.379Z,2312.00
2019-05-16T04:16:41.609Z,2316.00
2019-05-16T04:17:41.587Z,2300.00
2019-05-16T04:18:42.171Z,2276.00
2019-05-16T04:19:41.707Z,2280.00
2019-05-16T04:20:41.176Z,2344.00
2019-05-16T04:21:42.153Z,2500.00
2019-05-16T04:22:41.206Z,2676.00
2019-05-16T04:23:41.953Z,2764.00
2019-05-16T04:24:41.800Z,2768.00
2019-05-16T04:25:41.199Z,2720.00
2019-05-16T04:26:41.305Z,2680.00
2019-05-16T04:27:41.657Z,2648.00
2019-05-16T04:28:41.478Z,2648.00
2019-05-16T04:29:41.039Z,2660.00
2019-05-16T04:30:41.480Z,2704.00
2019-05-16T04:31:41.464Z,2668.00
2019-05-16T04:32:41.811Z,2540.00
2019-05-16T04:33:41.607Z,2480.00
2019-05-16T04:34:41.783Z,2456.00
2019-05-16T04:35:41.235Z,2492.00
2019-05-16T04:36:40.895Z,2612.00
2019-05-16T04:37:42.106Z,2776.00
2019-05-16T04:38:45.536Z,2920.00
2019-05-16T04:39:41.500Z,3044.00
2019-05-16T04:40:42.397Z,3192.00
2019-05-16T04:41:41.075Z,3412.00
2019-05-16T04:42:41.632Z,3708.00
2019-05-16T04:43:41.671Z,4088.00
2019-05-16T04:44:41.737Z,4492.00
2019-05-16T04:45:41.352Z,4880.00
2019-05-16T04:46:41.020Z,5288.00
2019-05-16T04:47:41.323Z,5664.00
2019-05-16T04:48:41.650Z,5944.00
2019-05-16T04:49:41.134Z,6036.00
2019-05-16T04:50:41.898Z,6060.00
2019-05-16T04:51:41.481Z,6084.00
2019-05-16T04:52:41.935Z,6120.00
2019-05-16T04:53:42.546Z,6208.00
2019-05-16T04:54:41.829Z,6348.00
2019-05-16T04:55:42.007Z,6540.00
2019-05-16T04:56:41.289Z,6828.00
2019-05-16T04:57:42.201Z,7212.00
2019-05-16T04:58:40.866Z,7584.00
2019-05-16T04:59:41.792Z,7868.00
2019-05-16T05:00:42.019Z,8104.00
2019-05-16T05:01:41.296Z,8336.00
2019-05-16T05:02:41.904Z,8512.00
2019-05-16T05:03:40.979Z,8600.00
2019-05-16T05:04:41.363Z,8704.00
2019-05-16T05:05:41.411Z,8868.00
2019-05-16T05:06:40.533Z,9064.00
2019-05-16T05:07:40.618Z,9212.00
2019-05-16T05:08:50.493Z,9220.00
2019-05-16T05:09:40.831Z,9024.00
2019-05-16T05:10:40.651Z,8776.00
2019-05-16T05:11:41.265Z,8560.00
2019-05-16T05:12:40.886Z,8520.00
2019-05-16T05:13:41.246Z,8536.00
2019-05-16T05:14:41.590Z,8712.00
2019-05-16T05:15:40.114Z,8844.00
2019-05-16T05:16:41.331Z,8976.00
2019-05-16T05:17:41.202Z,8912.00
2019-05-16T05:18:40.949Z,8804.00
2019-05-16T05:19:41.382Z,8876.00
2019-05-16T05:20:41.020Z,8640.00
2019-05-16T05:21:40.894Z,8144.00
2019-05-16T05:22:39.801Z,7976.00
2019-05-16T05:23:40.703Z,8224.00
2019-05-16T05:24:40.557Z,8512.00
2019-05-16T05:25:40.459Z,8712.00
2019-05-16T05:26:41.130Z,8916.00
2019-05-16T05:27:40.960Z,8972.00
2019-05-16T05:28:40.220Z,8684.00
2019-05-16T05:29:39.800Z,8120.00
2019-05-16T05:30:40.701Z,7416.00
2019-05-16T05:31:43.576Z,6800.00
2019-05-16T05:32:38.410Z,6496.00
2019-05-16T05:33:41.353Z,6388.00
2019-05-16T05:34:39.820Z,6548.00
2019-05-16T05:35:40.714Z,6920.00
2019-05-16T05:36:40.889Z,7344.00
2019-05-16T05:37:40.738Z,7708.00
2019-05-16T05:38:40.241Z,7964.00
2019-05-16T05:39:39.696Z,8180.00
2019-05-16T05:40:40.395Z,8328.00
2019-05-16T05:41:40.115Z,8416.00
2019-05-16T05:42:39.876Z,8456.00
2019-05-16T05:43:39.787Z,8436.00
2019-05-16T05:44:40.050Z,8464.00
2019-05-16T05:45:40.066Z,8396.00
2019-05-16T05:46:39.931Z,8224.00
2019-05-16T05:47:40.175Z,7952.00
2019-05-16T05:48:37.825Z,7768.00
2019-05-16T05:49:37.764Z,7832.00
2019-05-16T05:50:40.046Z,8180.00
2019-05-16T05:51:37.698Z,9016.00
2019-05-16T05:52:37.653Z,10140.00
2019-05-16T05:53:40.054Z,11280.00
2019-05-16T05:54:40.574Z,12044.00
2019-05-16T05:55:40.290Z,12516.00
2019-05-16T05:56:39.675Z,13096.00
2019-05-16T05:57:40.076Z,13220.00
2019-05-16T05:58:37.420Z,12804.00
2019-05-16T05:59:37.378Z,12680.00
2019-05-16T06:00:40.077Z,12740.00
2019-05-16T06:01:40.412Z,12848.00
2019-05-16T06:02:37.245Z,12732.00
2019-05-16T06:03:39.732Z,12552.00
2019-05-16T06:04:39.452Z,12512.00
2019-05-16T06:05:37.131Z,12380.00
2019-05-16T06:06:37.095Z,11912.00
2019-05-16T06:07:37.063Z,11460.00
2019-05-16T06:08:37.019Z,11036.00
2019-05-16T06:09:48.752Z,10800.00
2019-05-16T06:10:36.945Z,11220.00
2019-05-16T06:11:36.909Z,11700.00
2019-05-16T06:12:36.871Z,11888.00
2019-05-16T06:13:36.833Z,11164.00
2019-05-16T06:14:36.798Z,9512.00
2019-05-16T06:15:36.795Z,8920.00
2019-05-16T06:16:36.710Z,8956.00
2019-05-16T06:17:36.694Z,9232.00
2019-05-16T06:18:36.645Z,9264.00
2019-05-16T06:19:36.592Z,9532.00
2019-05-16T06:20:36.564Z,10100.00
2019-05-16T06:21:36.575Z,10072.00
2019-05-16T06:22:36.481Z,9388.00
2019-05-16T06:23:36.458Z,9316.00
2019-05-16T06:24:36.408Z,9276.00
2019-05-16T06:25:36.368Z,8844.00
2019-05-16T06:26:36.338Z,8604.00
2019-05-16T06:27:36.291Z,8772.00
2019-05-16T06:28:36.263Z,8892.00
2019-05-16T06:29:36.244Z,8964.00
2019-05-16T06:30:36.183Z,9272.00
2019-05-16T06:31:36.142Z,9156.00
2019-05-16T06:32:36.100Z,8664.00
2019-05-16T06:33:36.069Z,8464.00
2019-05-16T06:34:36.025Z,8660.00
2019-05-16T06:35:36.028Z,8620.00
2019-05-16T06:36:35.959Z,8096.00
2019-05-16T06:37:35.921Z,7616.00
2019-05-16T06:38:35.870Z,7640.00
2019-05-16T06:39:41.924Z,8476.00
2019-05-16T06:40:35.810Z,8876.00
2019-05-16T06:41:35.752Z,9244.00
2019-05-16T06:42:35.732Z,9072.00
2019-05-16T06:43:35.668Z,9128.00
2019-05-16T06:44:35.651Z,9236.00
2019-05-16T06:45:36.492Z,9168.00
2019-05-16T06:46:44.395Z,9728.00
2019-05-16T06:47:35.534Z,10356.00
2019-05-16T06:48:35.477Z,10580.00
2019-05-16T06:49:35.478Z,10596.00
2019-05-16T06:50:35.420Z,10512.00
2019-05-16T06:51:35.370Z,10100.00
2019-05-16T06:52:35.348Z,9780.00
2019-05-16T06:53:35.308Z,9460.00
2019-05-16T06:54:35.278Z,9044.00
2019-05-16T06:55:35.221Z,8604.00
2019-05-16T06:56:35.186Z,7864.00
2019-05-16T06:57:35.140Z,6856.00
2019-05-16T06:58:45.677Z,6408.00
2019-05-16T06:59:35.074Z,6276.00
2019-05-16T07:00:35.039Z,6056.00
2019-05-16T07:01:35.012Z,5984.00
2019-05-16T07:02:34.959Z,6328.00
2019-05-16T07:03:34.917Z,7132.00
2019-05-16T07:04:34.888Z,8016.00
2019-05-16T07:05:34.856Z,8736.00
2019-05-16T07:06:51.948Z,9212.00
2019-05-16T07:07:34.779Z,9064.00
2019-05-16T07:08:34.747Z,8960.00
2019-05-16T07:09:34.681Z,9316.00
2019-05-16T07:10:34.643Z,9184.00
2019-05-16T07:11:34.612Z,9524.00
2019-05-16T07:12:34.576Z,10676.00
2019-05-16T07:13:34.534Z,11156.00
2019-05-16T07:14:34.665Z,11288.00
2019-05-16T07:15:34.464Z,11116.00
2019-05-16T07:16:34.401Z,11204.00
2019-05-16T07:17:34.380Z,11412.00
2019-05-16T07:18:34.328Z,11948.00
2019-05-16T07:19:35.561Z,13092.00
2019-05-16T07:20:34.266Z,13372.00
2019-05-16T07:21:34.202Z,12988.00
2019-05-16T07:22:34.163Z,14100.00
2019-05-16T07:23:34.150Z,15112.00
2019-05-16T07:24:34.089Z,15684.00
2019-05-16T07:25:34.060Z,15644.00
2019-05-16T07:26:34.011Z,15404.00
2019-05-16T07:27:33.995Z,15216.00
2019-05-16T07:28:33.957Z,15856.00
2019-05-16T07:29:33.905Z,16456.00
2019-05-16T07:30:33.856Z,16396.00
2019-05-16T07:31:33.829Z,18208.00
2019-05-16T07:32:33.820Z,17464.00
2019-05-16T07:33:33.773Z,18144.00
2019-05-16T07:34:33.711Z,18112.00
2019-05-16T07:35:33.683Z,16044.00
2019-05-16T07:36:33.659Z,15860.00
2019-05-16T07:37:33.622Z,15980.00
2019-05-16T07:38:33.568Z,14992.00
2019-05-16T07:39:33.530Z,13856.00
2019-05-16T07:40:33.495Z,14472.00
2019-05-16T07:41:33.454Z,14076.00
2019-05-16T07:42:33.436Z,13252.00
2019-05-16T07:43:33.377Z,11548.00
2019-05-16T07:44:33.315Z,10032.00
2019-05-16T07:45:33.306Z,9468.00
2019-05-16T07:46:33.310Z,11092.00
2019-05-16T07:47:33.219Z,11232.00
2019-05-16T07:48:33.185Z,11168.00
2019-05-16T07:49:33.169Z,11628.00
2019-05-16T07:50:33.111Z,11860.00
2019-05-16T07:51:33.077Z,11472.00
2019-05-16T07:52:36.222Z,11432.00
2019-05-16T07:53:33.293Z,11476.00
2019-05-16T07:54:34.585Z,13068.00
2019-05-16T07:55:32.945Z,13908.00
2019-05-16T07:56:32.857Z,14056.00
2019-05-16T07:57:32.827Z,13252.00
2019-05-16T07:58:32.790Z,13796.00
2019-05-16T07:59:32.762Z,15184.00
2019-05-16T08:00:48.386Z,13884.00
2019-05-16T08:01:32.680Z,12336.00
2019-05-16T08:02:32.643Z,12508.00
2019-05-16T08:03:32.627Z,12148.00
2019-05-16T08:04:32.576Z,12508.00
2019-05-16T08:05:33.452Z,11400.00
2019-05-16T08:06:34.134Z,10644.00
2019-05-16T08:07:33.550Z,11000.00
2019-05-16T08:08:32.423Z,11216.00
2019-05-16T08:09:32.379Z,11256.00
2019-05-16T08:10:40.645Z,10636.00
2019-05-16T08:11:32.305Z,10064.00
2019-05-16T08:12:33.153Z,9576.00
2019-05-16T08:13:32.234Z,9376.00
2019-05-16T08:14:35.077Z,9372.00
2019-05-16T08:15:32.160Z,10624.00
2019-05-16T08:16:32.090Z,9988.00
2019-05-16T08:17:32.067Z,9460.00
2019-05-16T08:18:32.023Z,10180.00
2019-05-16T08:19:31.980Z,10092.00
2019-05-16T08:20:31.935Z,10016.00
2019-05-16T08:21:31.903Z,9216.00
2019-05-16T08:22:31.859Z,9204.00
2019-05-16T08:23:31.820Z,9528.00
2019-05-16T08:25:31.744Z,8288.00
2019-05-16T08:26:35.451Z,8128.00
2019-05-16T08:27:31.673Z,7936.00
2019-05-16T08:28:31.637Z,7544.00
2019-05-16T08:29:31.901Z,7856.00
2019-05-16T08:30:31.836Z,7852.00
2019-05-16T08:31:32.072Z,8200.00
2019-05-16T08:32:31.477Z,9000.00
2019-05-16T08:34:32.226Z,11116.00
2019-05-16T08:35:31.780Z,11656.00
2019-05-16T08:36:31.490Z,12480.00
2019-05-16T08:37:38.575Z,13620.00
2019-05-16T08:38:31.239Z,13220.00
2019-05-16T08:39:31.382Z,13712.00
2019-05-16T08:40:31.539Z,13912.00
2019-05-16T08:41:31.670Z,13772.00
2019-05-16T08:43:31.830Z,14080.00
2019-05-16T08:44:32.370Z,14416.00
2019-05-16T08:45:31.554Z,15528.00
2019-05-16T08:48:31.823Z,16068.00
2019-05-16T08:49:30.887Z,16624.00
2019-05-16T08:50:05.378Z,9636.00
2019-05-16T08:50:05.530Z,15464.00
2019-05-16T08:50:05.961Z,14276.00
2019-05-16T08:50:06.252Z,15368.00
2019-05-16T08:51:33.341Z,15176.00
2019-05-16T08:52:31.702Z,14364.00
2019-05-16T08:53:31.635Z,14984.00
2019-05-16T08:54:31.849Z,15336.00
2019-05-16T08:55:31.441Z,14868.00
2019-05-16T08:56:31.783Z,15124.00
2019-05-16T08:57:33.885Z,16736.00
2019-05-16T08:58:33.171Z,15956.00
2019-05-16T08:59:33.887Z,15308.00
2019-05-16T09:00:33.397Z,15452.00
2019-05-16T09:01:34.887Z,15552.00
2019-05-16T09:02:35.783Z,15332.00
2019-05-16T09:04:33.740Z,13236.00
2019-05-16T09:05:31.538Z,13348.00
2019-05-16T09:06:32.045Z,12888.00
2019-05-16T09:08:30.093Z,11588.00
2019-05-16T09:09:42.242Z,11300.00
2019-05-16T09:10:31.318Z,8616.00
2019-05-16T09:10:32.873Z,13824.00
2019-05-16T09:10:32.874Z,11976.00
2019-05-16T09:10:57.975Z,10876.00
2019-05-16T09:11:40.680Z,11024.00
2019-05-16T09:12:29.960Z,11184.00
2019-05-16T09:13:29.931Z,11492.00
2019-05-16T09:14:35.123Z,12900.00
2019-05-16T09:15:29.833Z,15516.00
2019-05-16T09:16:29.822Z,17208.00
2019-05-16T09:17:29.779Z,16540.00
2019-05-16T09:18:29.716Z,16020.00
2019-05-16T09:18:30.746Z,15716.00
2019-05-16T09:19:29.661Z,15728.00
2019-05-16T09:20:29.625Z,14796.00
2019-05-16T09:21:29.595Z,14028.00
2019-05-16T09:22:29.578Z,13728.00
2019-05-16T09:23:29.511Z,13984.00
2019-05-16T09:24:29.480Z,15720.00
2019-05-16T09:25:29.441Z,15440.00
2019-05-16T09:26:29.386Z,13892.00
2019-05-16T09:27:29.361Z,13548.00
2019-05-16T09:28:29.316Z,13392.00
2019-05-16T09:29:29.286Z,13220.00
2019-05-16T09:30:29.233Z,13436.00
2019-05-16T09:31:29.221Z,13032.00
2019-05-16T09:32:29.222Z,12892.00
2019-05-16T09:33:29.143Z,12544.00
2019-05-16T09:34:29.091Z,13256.00
2019-05-16T09:35:29.060Z,12836.00
2019-05-16T09:36:29.012Z,11960.00
2019-05-16T09:37:29.041Z,12384.00
2019-05-16T09:38:28.936Z,12708.00
2019-05-16T09:39:28.897Z,12780.00
2019-05-16T09:40:28.870Z,12920.00
2019-05-16T09:41:46.173Z,13616.00
2019-05-16T09:42:28.808Z,13992.00
2019-05-16T09:43:28.764Z,13484.00
2019-05-16T09:44:28.728Z,13136.00
2019-05-16T09:45:28.670Z,13016.00
2019-05-16T09:46:28.659Z,13112.00
2019-05-16T09:47:28.601Z,13124.00
2019-05-16T09:48:28.566Z,14424.00
2019-05-16T09:49:29.258Z,16528.00
2019-05-16T09:50:28.476Z,17572.00
2019-05-16T09:51:28.479Z,19264.00
2019-05-16T09:52:28.449Z,20096.00
2019-05-16T09:53:28.360Z,19616.00
2019-05-16T09:54:28.353Z,18912.00
2019-05-16T09:55:28.307Z,18912.00
2019-05-16T09:56:28.253Z,20672.00
2019-05-16T09:57:28.221Z,23616.00
2019-05-16T09:58:28.273Z,26592.00
2019-05-16T09:59:28.127Z,29280.00
2019-05-16T10:00:28.092Z,31872.00
2019-05-16T10:01:28.083Z,34080.00
2019-05-16T10:02:28.041Z,33472.00
2019-05-16T10:03:27.986Z,30944.00
2019-05-16T10:04:27.956Z,28064.00
2019-05-16T10:05:27.922Z,26400.00
2019-05-16T10:06:27.859Z,26144.00
2019-05-16T10:07:28.456Z,27168.00
2019-05-16T10:08:27.799Z,28640.00
2019-05-16T10:09:41.302Z,27616.00
2019-05-16T10:10:27.712Z,26880.00
2019-05-16T10:11:31.155Z,24864.00
2019-05-16T10:12:27.636Z,22528.00
2019-05-16T10:13:28.065Z,21088.00
2019-05-16T10:14:27.598Z,19680.00
2019-05-16T10:15:27.535Z,17464.00
2019-05-16T10:16:27.675Z,15344.00
2019-05-16T10:17:27.468Z,14384.00
2019-05-16T10:18:27.975Z,14840.00
2019-05-16T10:19:27.662Z,15236.00
2019-05-16T10:20:27.539Z,15480.00
2019-05-16T10:21:27.366Z,15552.00
2019-05-16T10:22:27.395Z,14528.00
2019-05-16T10:23:28.447Z,13904.00
2019-05-16T10:24:27.183Z,12644.00
2019-05-16T10:25:27.817Z,11280.00
2019-05-16T10:26:27.774Z,10708.00
2019-05-16T10:27:27.078Z,10596.00
2019-05-16T10:28:27.620Z,10212.00
2019-05-16T10:29:27.593Z,9928.00
2019-05-16T10:30:27.114Z,10060.00
2019-05-16T10:31:41.330Z,10952.00
2019-05-16T10:32:27.352Z,13972.00
2019-05-16T10:33:27.498Z,17384.00
2019-05-16T10:34:26.822Z,17748.00
2019-05-16T10:35:29.846Z,15856.00
2019-05-16T10:36:28.083Z,14448.00
2019-05-16T10:37:27.004Z,14084.00
2019-05-16T10:38:28.403Z,14452.00
2019-05-16T10:39:26.899Z,14776.00
2019-05-16T10:40:27.410Z,15260.00
2019-05-16T10:41:26.529Z,16972.00
2019-05-16T10:42:28.890Z,18528.00
2019-05-16T10:43:26.643Z,19072.00
2019-05-16T10:44:28.035Z,19232.00
2019-05-16T10:45:27.299Z,19104.00
2019-05-16T10:46:26.936Z,19552.00
2019-05-16T10:47:31.016Z,20640.00
2019-05-16T10:48:26.980Z,21696.00
2019-05-16T10:49:37.103Z,20736.00
2019-05-16T10:50:27.603Z,19968.00
2019-05-16T10:51:26.908Z,18592.00
2019-05-16T10:52:26.909Z,17616.00
2019-05-16T10:53:55.606Z,17656.00
2019-05-16T10:54:27.536Z,18208.00
2019-05-16T10:55:27.744Z,17600.00
2019-05-16T10:56:25.974Z,16236.00
2019-05-16T10:57:29.359Z,14788.00
2019-05-16T10:58:36.676Z,13968.00
2019-05-16T10:59:56.716Z,13428.00
2019-05-16T11:00:51.454Z,13196.00
2019-05-16T11:01:28.696Z,13464.00
2019-05-16T11:02:27.570Z,13576.00
2019-05-16T11:03:27.683Z,13668.00
2019-05-16T11:04:33.382Z,13672.00
2019-05-16T11:05:33.031Z,13940.00
2019-05-16T11:06:29.136Z,14996.00
2019-05-16T11:07:29.404Z,16744.00
2019-05-16T11:08:25.546Z,18656.00
2019-05-16T11:09:25.495Z,20352.00
2019-05-16T11:10:26.899Z,21632.00
2019-05-16T11:11:27.352Z,21728.00
2019-05-16T11:12:45.511Z,20832.00
2019-05-16T11:13:27.710Z,19648.00
2019-05-16T11:14:27.936Z,18784.00
2019-05-16T11:15:27.622Z,18720.00
2019-05-16T11:16:27.541Z,19264.00
2019-05-16T11:17:27.818Z,20288.00
2019-05-16T11:18:27.257Z,21248.00
2019-05-16T11:19:28.105Z,22016.00
2019-05-16T11:20:26.866Z,22336.00
2019-05-16T11:21:26.772Z,22336.00
2019-05-16T11:22:29.532Z,22560.00
2019-05-16T11:23:30.707Z,23072.00
2019-05-16T11:24:29.028Z,24192.00
2019-05-16T11:25:29.599Z,25632.00
2019-05-16T11:26:27.625Z,27040.00
2019-05-16T11:27:24.839Z,27648.00
2019-05-16T11:28:24.783Z,28064.00
2019-05-16T11:29:24.743Z,27840.00
2019-05-16T11:30:24.757Z,26400.00
2019-05-16T11:31:26.704Z,25056.00
2019-05-16T11:32:26.817Z,24064.00
2019-05-16T11:33:24.601Z,22880.00
2019-05-16T11:34:26.673Z,21632.00
2019-05-16T11:35:27.000Z,20800.00
2019-05-16T11:36:26.655Z,20128.00
2019-05-16T11:37:24.430Z,20256.00
2019-05-16T11:38:24.434Z,20320.00
2019-05-16T11:39:24.365Z,20032.00
2019-05-16T11:40:24.329Z,19520.00
2019-05-16T11:41:24.302Z,19968.00
2019-05-16T11:42:24.260Z,20608.00
2019-05-16T11:43:24.211Z,21856.00
2019-05-16T11:44:28.191Z,23520.00
2019-05-16T11:45:24.151Z,24576.00
2019-05-16T11:46:24.126Z,24672.00
2019-05-16T11:47:24.064Z,24544.00
2019-05-16T11:48:25.349Z,24800.00
2019-05-16T11:49:23.990Z,24960.00
2019-05-16T11:50:23.960Z,24992.00
2019-05-16T11:51:23.968Z,24832.00
2019-05-16T11:52:23.875Z,23968.00
2019-05-16T11:53:23.844Z,23264.00
2019-05-16T11:54:26.420Z,23200.00
2019-05-16T11:55:23.835Z,23520.00
2019-05-16T11:56:23.743Z,23328.00
2019-05-16T11:57:23.712Z,22496.00
2019-05-16T11:58:23.654Z,21728.00
2019-05-16T11:59:23.625Z,20032.00
2019-05-16T12:00:23.597Z,17276.00
2019-05-16T12:01:23.540Z,14676.00
2019-05-16T12:02:23.513Z,12276.00
2019-05-16T12:03:23.487Z,10304.00
2019-05-16T12:04:23.484Z,9124.00
2019-05-16T12:05:23.448Z,8800.00
2019-05-16T12:06:23.384Z,8884.00
2019-05-16T12:07:23.334Z,9468.00
2019-05-16T12:08:23.297Z,10764.00
2019-05-16T12:09:23.254Z,12612.00
2019-05-16T12:10:24.081Z,15424.00
2019-05-16T12:11:23.206Z,18528.00
2019-05-16T12:12:24.117Z,21344.00
2019-05-16T12:13:29.809Z,23104.00
2019-05-16T12:14:23.058Z,23712.00
2019-05-16T12:15:23.026Z,23808.00